UAE767 OMDB-FAOR
Flight info
| Callsign | UAE767 |
|---|---|
| Flight time | N/A |
| Altitude | 34000 |
| Route | ANVIX R401 GIDIS G783 UKRAG/N0495F350 L710 KUKDI/N0498F340 B400 RIGAM/N0496F360 B400 VEDET UL437 ELAVA DCT BONAP/N0489F380 UM310 VBR UM307 EPSEK UZ33 NESAG UZ7 OKPIT OKPIT1C |
| Aircraft | B77W/H-SDE1E2E3FGHIJ2J3J4J5M1RWXY/LB1D1 |
Departure
| Time | 2026-04-23 23:00 |
|---|---|
| Airport | Dubai International Airport (OMDB) |
Arrival
| Time | N/A |
|---|---|
| Airport | O.R. Tambo International Airport (FAOR) |
| Time | Latitude | Longitude | Altitude | Speed | Heading |
|---|---|---|---|---|---|
| 2026-04-23 22:23 | 25.24433 | 55.37214 | 26 ft | 0 kts | 211° |
| 2026-04-23 22:49 | 25.24444 | 55.37222 | 26 ft | 3 kts | 211° |
| 2026-04-23 22:49 | 25.24461 | 55.37233 | 27 ft | 3 kts | 211° |
| 2026-04-23 22:50 | 25.24478 | 55.37245 | 27 ft | 3 kts | 204° |
| 2026-04-23 22:50 | 25.24497 | 55.37251 | 27 ft | 3 kts | 184° |
| 2026-04-23 22:50 | 25.24516 | 55.37250 | 27 ft | 3 kts | 158° |
| 2026-04-23 22:50 | 25.24532 | 55.37240 | 27 ft | 2 kts | 128° |
| 2026-04-23 22:51 | 25.24539 | 55.37230 | 27 ft | 2 kts | 122° |
| 2026-04-23 22:51 | 25.24549 | 55.37211 | 27 ft | 3 kts | 122° |
| 2026-04-23 22:51 | 25.24555 | 55.37202 | 27 ft | 0 kts | 122° |
| 2026-04-23 22:53 | 25.24554 | 55.37203 | 27 ft | 2 kts | 122° |
| 2026-04-23 22:54 | 25.24526 | 55.37253 | 27 ft | 14 kts | 121° |
| 2026-04-23 22:54 | 25.24464 | 55.37367 | 27 ft | 18 kts | 120° |
| 2026-04-23 22:54 | 25.24413 | 55.37464 | 27 ft | 14 kts | 122° |
| 2026-04-23 22:54 | 25.24363 | 55.37554 | 27 ft | 14 kts | 121° |
| 2026-04-23 22:55 | 25.24313 | 55.37644 | 27 ft | 14 kts | 122° |
| 2026-04-23 22:55 | 25.24269 | 55.37737 | 27 ft | 13 kts | 99° |
| 2026-04-23 22:55 | 25.24321 | 55.37812 | 27 ft | 13 kts | 30° |
| 2026-04-23 22:55 | 25.24339 | 55.37824 | 27 ft | 0 kts | 33° |
| 2026-04-23 22:56 | 25.24340 | 55.37825 | 27 ft | 1 kts | 32° |
| 2026-04-23 22:56 | 25.24363 | 55.37842 | 27 ft | 7 kts | 32° |
| 2026-04-23 22:56 | 25.24419 | 55.37881 | 27 ft | 12 kts | 33° |
| 2026-04-23 22:56 | 25.24495 | 55.37939 | 27 ft | 14 kts | 34° |
| 2026-04-23 22:57 | 25.24576 | 55.38000 | 27 ft | 14 kts | 34° |
| 2026-04-23 22:57 | 25.24636 | 55.38044 | 27 ft | 1 kts | 32° |
| 2026-04-23 22:57 | 25.24637 | 55.38044 | 27 ft | 0 kts | 32° |
| 2026-04-23 22:57 | 25.24651 | 55.38054 | 27 ft | 5 kts | 32° |
| 2026-04-23 22:58 | 25.24710 | 55.38094 | 27 ft | 13 kts | 31° |
| 2026-04-23 22:58 | 25.24756 | 55.38112 | 27 ft | 5 kts | 342° |
| 2026-04-23 22:58 | 25.24774 | 55.38081 | 27 ft | 5 kts | 299° |
| 2026-04-23 22:58 | 25.24801 | 55.38028 | 27 ft | 19 kts | 300° |
| 2026-04-23 22:59 | 25.24976 | 55.37715 | 27 ft | 83 kts | 302° |
| 2026-04-23 22:59 | 25.25401 | 55.36953 | 27 ft | 147 kts | 302° |
| 2026-04-23 22:59 | 25.26039 | 55.35827 | 56 ft | 192 kts | 303° |
| 2026-04-23 22:59 | 25.26734 | 55.34567 | 645 ft | 190 kts | 301° |
| 2026-04-23 23:00 | 25.27392 | 55.33304 | 1236 ft | 193 kts | 301° |
| 2026-04-23 23:00 | 25.28056 | 55.31971 | 1715 ft | 199 kts | 299° |
| 2026-04-23 23:00 | 25.28694 | 55.30602 | 2168 ft | 203 kts | 297° |
| 2026-04-23 23:00 | 25.29190 | 55.29162 | 2597 ft | 206 kts | 275° |
| 2026-04-23 23:01 | 25.28897 | 55.27634 | 2942 ft | 208 kts | 237° |
| 2026-04-23 23:01 | 25.28160 | 55.26248 | 3343 ft | 210 kts | 242° |
| 2026-04-23 23:01 | 25.27495 | 55.24817 | 3870 ft | 207 kts | 243° |
| 2026-04-23 23:01 | 25.26884 | 55.23381 | 4395 ft | 205 kts | 245° |
| 2026-04-23 23:02 | 25.26294 | 55.21949 | 4930 ft | 204 kts | 245° |
| 2026-04-23 23:02 | 25.25681 | 55.20533 | 5363 ft | 209 kts | 244° |
| 2026-04-23 23:02 | 25.25029 | 55.19034 | 5609 ft | 226 kts | 245° |
| 2026-04-23 23:02 | 25.24289 | 55.17458 | 5975 ft | 231 kts | 231° |
| 2026-04-23 23:03 | 25.22986 | 55.16422 | 6404 ft | 242 kts | 197° |
| 2026-04-23 23:03 | 25.21853 | 55.16308 | 6607 ft | 251 kts | 177° |
| 2026-04-23 23:03 | 25.20108 | 55.16511 | 7116 ft | 253 kts | 176° |
| 2026-04-23 23:03 | 25.18433 | 55.17152 | 7575 ft | 264 kts | 144° |
| 2026-04-23 23:04 | 25.17272 | 55.18773 | 7932 ft | 281 kts | 115° |
| 2026-04-23 23:04 | 25.16536 | 55.20820 | 8220 ft | 293 kts | 116° |
| 2026-04-23 23:04 | 25.15674 | 55.22886 | 8765 ft | 298 kts | 119° |
| 2026-04-23 23:04 | 25.14729 | 55.24935 | 9428 ft | 300 kts | 120° |
| 2026-04-23 23:05 | 25.13755 | 55.26984 | 10078 ft | 303 kts | 121° |
| 2026-04-23 23:05 | 25.12764 | 55.29052 | 10674 ft | 307 kts | 121° |
| 2026-04-23 23:05 | 25.11754 | 55.31150 | 11313 ft | 312 kts | 121° |
| 2026-04-23 23:05 | 25.10729 | 55.33282 | 11989 ft | 316 kts | 120° |
| 2026-04-23 23:06 | 25.09775 | 55.35484 | 12726 ft | 321 kts | 117° |
| 2026-04-23 23:06 | 25.08861 | 55.37753 | 13452 ft | 326 kts | 116° |
| 2026-04-23 23:06 | 25.07929 | 55.40057 | 14124 ft | 331 kts | 116° |
| 2026-04-23 23:06 | 25.06985 | 55.42385 | 14776 ft | 337 kts | 115° |
| 2026-04-23 23:07 | 25.06036 | 55.44832 | 15044 ft | 359 kts | 115° |
| 2026-04-23 23:07 | 25.05035 | 55.47458 | 15216 ft | 382 kts | 114° |
| 2026-04-23 23:07 | 25.03972 | 55.50240 | 15395 ft | 405 kts | 114° |
| 2026-04-23 23:07 | 25.02845 | 55.53170 | 15701 ft | 421 kts | 114° |
| 2026-04-23 23:08 | 25.01666 | 55.56164 | 16191 ft | 431 kts | 117° |
| 2026-04-23 23:08 | 25.00232 | 55.59041 | 16793 ft | 436 kts | 123° |
| 2026-04-23 23:08 | 24.98604 | 55.61880 | 17495 ft | 440 kts | 124° |
| 2026-04-23 23:08 | 24.96962 | 55.64736 | 18178 ft | 445 kts | 123° |
| 2026-04-23 23:09 | 24.95346 | 55.67661 | 18769 ft | 449 kts | 122° |
| 2026-04-23 23:09 | 24.93731 | 55.70623 | 19390 ft | 451 kts | 123° |
| 2026-04-23 23:09 | 24.91962 | 55.73471 | 20024 ft | 453 kts | 128° |
| 2026-04-23 23:09 | 24.90056 | 55.76255 | 20650 ft | 456 kts | 129° |
| 2026-04-23 23:10 | 24.88122 | 55.79042 | 21266 ft | 459 kts | 129° |
| 2026-04-23 23:10 | 24.86203 | 55.81874 | 21864 ft | 463 kts | 128° |
| 2026-04-23 23:10 | 24.84296 | 55.84743 | 22456 ft | 466 kts | 127° |
| 2026-04-23 23:10 | 24.82369 | 55.87636 | 23041 ft | 469 kts | 128° |
| 2026-04-23 23:11 | 24.80335 | 55.90411 | 23447 ft | 466 kts | 138° |
| 2026-04-23 23:11 | 24.77664 | 55.92434 | 23723 ft | 468 kts | 158° |
| 2026-04-23 23:11 | 24.74585 | 55.93557 | 24171 ft | 466 kts | 171° |
| 2026-04-23 23:11 | 24.71376 | 55.93831 | 24610 ft | 463 kts | 185° |
| 2026-04-23 23:12 | 24.68148 | 55.93611 | 25103 ft | 465 kts | 186° |
| 2026-04-23 23:12 | 24.64900 | 55.93428 | 25511 ft | 467 kts | 186° |
| 2026-04-23 23:12 | 24.61680 | 55.92889 | 25779 ft | 469 kts | 199° |
| 2026-04-23 23:12 | 24.58661 | 55.91571 | 26179 ft | 467 kts | 210° |
| 2026-04-23 23:13 | 24.55954 | 55.89640 | 26647 ft | 462 kts | 222° |
| 2026-04-23 23:13 | 24.53554 | 55.87287 | 27011 ft | 464 kts | 225° |
| 2026-04-23 23:13 | 24.51154 | 55.84891 | 27363 ft | 468 kts | 224° |
| 2026-04-23 23:13 | 24.48717 | 55.82488 | 27763 ft | 472 kts | 224° |
| 2026-04-23 23:14 | 24.46260 | 55.80100 | 28151 ft | 474 kts | 224° |
| 2026-04-23 23:14 | 24.43770 | 55.77703 | 28514 ft | 477 kts | 224° |
| 2026-04-23 23:14 | 24.41263 | 55.75301 | 28810 ft | 481 kts | 224° |
| 2026-04-23 23:14 | 24.38775 | 55.72918 | 29118 ft | 483 kts | 224° |
| 2026-04-23 23:15 | 24.36236 | 55.70484 | 29461 ft | 485 kts | 224° |
| 2026-04-23 23:15 | 24.33694 | 55.68031 | 29786 ft | 487 kts | 224° |
| 2026-04-23 23:15 | 24.31149 | 55.65572 | 30112 ft | 488 kts | 224° |
| 2026-04-23 23:15 | 24.28521 | 55.63216 | 30468 ft | 489 kts | 218° |
| 2026-04-23 23:16 | 24.25620 | 55.61274 | 30938 ft | 490 kts | 211° |
| 2026-04-23 23:16 | 24.22528 | 55.59676 | 31365 ft | 491 kts | 206° |
| 2026-04-23 23:16 | 24.19287 | 55.58469 | 31719 ft | 494 kts | 199° |
| 2026-04-23 23:16 | 24.15961 | 55.57525 | 32040 ft | 494 kts | 198° |
| 2026-04-23 23:17 | 24.12621 | 55.56598 | 32352 ft | 494 kts | 198° |
| 2026-04-23 23:17 | 24.09301 | 55.55656 | 32709 ft | 493 kts | 199° |
| 2026-04-23 23:17 | 24.05995 | 55.54690 | 33076 ft | 491 kts | 199° |
| 2026-04-23 23:17 | 24.02699 | 55.53713 | 33414 ft | 490 kts | 199° |
| 2026-04-23 23:18 | 23.99409 | 55.52735 | 33744 ft | 490 kts | 199° |
| 2026-04-23 23:18 | 23.92779 | 55.50759 | 33874 ft | 495 kts | 200° |
| 2026-04-23 23:19 | 23.86155 | 55.48788 | 33854 ft | 491 kts | 200° |
| 2026-04-23 23:19 | 23.79577 | 55.46832 | 33852 ft | 489 kts | 200° |
| 2026-04-23 23:20 | 23.73016 | 55.44877 | 33853 ft | 489 kts | 200° |
| 2026-04-23 23:20 | 23.66501 | 55.42935 | 33847 ft | 489 kts | 200° |
| 2026-04-23 23:21 | 23.59926 | 55.40976 | 33847 ft | 490 kts | 200° |
| 2026-04-23 23:21 | 23.53247 | 55.39378 | 33840 ft | 498 kts | 188° |
| 2026-04-23 23:22 | 23.46248 | 55.39846 | 33838 ft | 510 kts | 171° |
| 2026-04-23 23:22 | 23.39386 | 55.41973 | 33850 ft | 513 kts | 167° |
| 2026-04-23 23:23 | 23.32572 | 55.44199 | 33843 ft | 514 kts | 167° |
| 2026-04-23 23:23 | 23.25702 | 55.46399 | 33837 ft | 514 kts | 167° |
| 2026-04-23 23:24 | 23.18833 | 55.48566 | 33831 ft | 514 kts | 167° |
| 2026-04-23 23:24 | 23.11966 | 55.50729 | 33846 ft | 514 kts | 167° |
| 2026-04-23 23:25 | 23.05101 | 55.52892 | 33842 ft | 514 kts | 167° |
| 2026-04-23 23:25 | 22.98224 | 55.55028 | 33833 ft | 514 kts | 168° |
| 2026-04-23 23:26 | 22.91336 | 55.57123 | 33825 ft | 514 kts | 168° |
| 2026-04-23 23:26 | 22.84446 | 55.59218 | 33839 ft | 514 kts | 168° |
| 2026-04-23 23:27 | 22.77561 | 55.61317 | 33831 ft | 514 kts | 168° |
| 2026-04-23 23:27 | 22.70715 | 55.63402 | 33833 ft | 515 kts | 168° |
| 2026-04-23 23:28 | 22.63819 | 55.65501 | 33822 ft | 515 kts | 168° |
| 2026-04-23 23:28 | 22.56925 | 55.67607 | 33826 ft | 515 kts | 168° |
| 2026-04-23 23:29 | 22.50016 | 55.69729 | 33828 ft | 515 kts | 168° |
| 2026-04-23 23:29 | 22.43114 | 55.71844 | 33815 ft | 515 kts | 168° |
| 2026-04-23 23:30 | 22.36212 | 55.73953 | 33819 ft | 516 kts | 168° |
| 2026-04-23 23:30 | 22.29302 | 55.76063 | 33822 ft | 516 kts | 168° |
| 2026-04-23 23:31 | 22.22299 | 55.77595 | 33810 ft | 510 kts | 179° |
| 2026-04-23 23:31 | 22.15236 | 55.78238 | 33817 ft | 510 kts | 179° |
| 2026-04-23 23:32 | 22.08206 | 55.78892 | 33828 ft | 510 kts | 179° |
| 2026-04-23 23:32 | 22.01133 | 55.79594 | 33824 ft | 511 kts | 178° |
| 2026-04-23 23:33 | 21.94053 | 55.80310 | 33824 ft | 511 kts | 178° |
| 2026-04-23 23:33 | 21.86981 | 55.81022 | 33821 ft | 511 kts | 178° |
| 2026-04-23 23:34 | 21.79896 | 55.81732 | 33825 ft | 511 kts | 178° |
| 2026-04-23 23:34 | 21.72807 | 55.82441 | 33823 ft | 511 kts | 178° |
| 2026-04-23 23:35 | 21.65720 | 55.83147 | 33815 ft | 511 kts | 178° |
| 2026-04-23 23:35 | 21.58623 | 55.83841 | 33823 ft | 512 kts | 178° |
| 2026-04-23 23:36 | 21.51531 | 55.84532 | 33835 ft | 512 kts | 178° |
| 2026-04-23 23:36 | 21.44418 | 55.85226 | 33832 ft | 513 kts | 178° |
| 2026-04-23 23:37 | 21.37350 | 55.85914 | 33834 ft | 513 kts | 178° |
| 2026-04-23 23:37 | 21.30231 | 55.86607 | 33835 ft | 514 kts | 178° |
| 2026-04-23 23:38 | 21.23110 | 55.87299 | 33836 ft | 514 kts | 178° |
| 2026-04-23 23:38 | 21.15991 | 55.87985 | 33836 ft | 513 kts | 178° |
| 2026-04-23 23:39 | 21.08873 | 55.88668 | 33829 ft | 514 kts | 178° |
| 2026-04-23 23:39 | 21.01752 | 55.89352 | 33841 ft | 514 kts | 178° |
| 2026-04-23 23:40 | 20.94611 | 55.90035 | 33846 ft | 515 kts | 178° |
| 2026-04-23 23:40 | 20.87460 | 55.90720 | 33843 ft | 516 kts | 178° |
| 2026-04-23 23:41 | 20.80298 | 55.91418 | 33839 ft | 517 kts | 178° |
| 2026-04-23 23:41 | 20.73139 | 55.92126 | 33846 ft | 517 kts | 178° |
| 2026-04-23 23:42 | 20.65967 | 55.92833 | 33846 ft | 518 kts | 178° |
| 2026-04-23 23:42 | 20.58788 | 55.93536 | 33848 ft | 518 kts | 178° |
| 2026-04-23 23:43 | 20.51598 | 55.94240 | 33842 ft | 519 kts | 178° |
| 2026-04-23 23:43 | 20.44412 | 55.94942 | 33846 ft | 519 kts | 178° |
| 2026-04-23 23:44 | 20.37214 | 55.95644 | 33845 ft | 520 kts | 178° |
| 2026-04-23 23:44 | 20.30005 | 55.96348 | 33841 ft | 520 kts | 178° |
| 2026-04-23 23:45 | 20.22797 | 55.97036 | 33855 ft | 521 kts | 178° |
| 2026-04-23 23:45 | 20.15572 | 55.97720 | 33850 ft | 521 kts | 178° |
| 2026-04-23 23:46 | 20.08353 | 55.98396 | 33853 ft | 521 kts | 179° |
| 2026-04-23 23:46 | 20.01123 | 55.98638 | 33847 ft | 519 kts | 182° |
| 2026-04-23 23:47 | 19.93904 | 55.98774 | 33853 ft | 519 kts | 182° |
| 2026-04-23 23:47 | 19.86664 | 55.98931 | 33857 ft | 520 kts | 182° |
| 2026-04-23 23:48 | 19.79463 | 55.99105 | 33855 ft | 520 kts | 182° |
| 2026-04-23 23:48 | 19.72223 | 55.99282 | 33844 ft | 521 kts | 182° |
| 2026-04-23 23:49 | 19.61345 | 55.99543 | 33851 ft | 522 kts | 182° |
| 2026-04-23 23:49 | 19.54107 | 55.99541 | 33853 ft | 516 kts | 190° |
| 2026-04-23 23:50 | 19.48357 | 55.98124 | 33876 ft | 507 kts | 204° |
| 2026-04-23 23:50 | 19.42127 | 55.94813 | 33888 ft | 499 kts | 215° |
| 2026-04-23 23:51 | 19.36141 | 55.91064 | 33875 ft | 501 kts | 215° |
| 2026-04-23 23:51 | 19.30098 | 55.87354 | 33876 ft | 502 kts | 214° |
| 2026-04-23 23:52 | 19.24029 | 55.83677 | 33859 ft | 503 kts | 214° |
| 2026-04-23 23:52 | 19.17956 | 55.80003 | 33876 ft | 503 kts | 214° |
| 2026-04-23 23:53 | 19.11892 | 55.76332 | 33880 ft | 502 kts | 215° |
| 2026-04-23 23:53 | 19.05842 | 55.72672 | 33874 ft | 500 kts | 215° |
| 2026-04-23 23:54 | 18.99798 | 55.69033 | 33875 ft | 499 kts | 214° |
| 2026-04-23 23:54 | 18.93754 | 55.65405 | 33882 ft | 499 kts | 214° |
| 2026-04-23 23:55 | 18.87721 | 55.61780 | 33961 ft | 501 kts | 214° |
| 2026-04-23 23:55 | 18.84692 | 55.59960 | 34205 ft | 501 kts | 215° |
| 2026-04-23 23:55 | 18.81669 | 55.58145 | 34511 ft | 499 kts | 215° |
| 2026-04-23 23:56 | 18.78657 | 55.56338 | 34807 ft | 497 kts | 215° |
| 2026-04-23 23:56 | 18.75657 | 55.54540 | 35112 ft | 496 kts | 215° |
| 2026-04-23 23:56 | 18.72657 | 55.52741 | 35383 ft | 495 kts | 215° |
| 2026-04-23 23:56 | 18.69706 | 55.50971 | 35644 ft | 494 kts | 215° |
| 2026-04-23 23:57 | 18.66718 | 55.49180 | 35794 ft | 495 kts | 216° |
| 2026-04-23 23:57 | 18.63722 | 55.47383 | 35827 ft | 496 kts | 215° |
| 2026-04-23 23:57 | 18.57727 | 55.43793 | 35880 ft | 495 kts | 215° |
| 2026-04-23 23:58 | 18.51755 | 55.40221 | 35883 ft | 493 kts | 215° |
| 2026-04-23 23:58 | 18.45797 | 55.36659 | 35881 ft | 492 kts | 216° |
| 2026-04-23 23:59 | 18.39856 | 55.33107 | 35882 ft | 491 kts | 216° |
| 2026-04-23 23:59 | 18.33876 | 55.29538 | 35883 ft | 491 kts | 215° |
| 2026-04-24 00:00 | 18.27919 | 55.25986 | 35883 ft | 492 kts | 215° |
| 2026-04-24 00:00 | 18.22000 | 55.22454 | 35887 ft | 492 kts | 216° |
| 2026-04-24 00:01 | 18.16036 | 55.18898 | 35880 ft | 493 kts | 215° |
| 2026-04-24 00:01 | 18.09822 | 55.15730 | 35885 ft | 499 kts | 208° |
| 2026-04-24 00:02 | 18.03414 | 55.12911 | 35887 ft | 500 kts | 208° |
| 2026-04-24 00:02 | 17.96993 | 55.10080 | 35889 ft | 500 kts | 208° |
| 2026-04-24 00:03 | 17.90594 | 55.07222 | 35894 ft | 500 kts | 208° |
| 2026-04-24 00:03 | 17.84189 | 55.04348 | 35891 ft | 500 kts | 208° |
| 2026-04-24 00:04 | 17.77797 | 55.01482 | 35897 ft | 500 kts | 208° |
| 2026-04-24 00:04 | 17.71397 | 54.98618 | 35907 ft | 499 kts | 208° |
| 2026-04-24 00:05 | 17.65004 | 54.95759 | 35903 ft | 499 kts | 208° |
| 2026-04-24 00:05 | 17.58623 | 54.92908 | 35903 ft | 499 kts | 208° |
| 2026-04-24 00:06 | 17.52237 | 54.90055 | 35906 ft | 499 kts | 208° |
| 2026-04-24 00:06 | 17.45854 | 54.87207 | 35916 ft | 499 kts | 208° |
| 2026-04-24 00:07 | 17.39461 | 54.84356 | 35925 ft | 499 kts | 208° |
| 2026-04-24 00:07 | 17.33108 | 54.81523 | 35913 ft | 500 kts | 208° |
| 2026-04-24 00:08 | 17.26753 | 54.78584 | 35922 ft | 496 kts | 213° |
| 2026-04-24 00:08 | 17.20916 | 54.74839 | 35905 ft | 491 kts | 219° |
| 2026-04-24 00:09 | 17.15190 | 54.70929 | 35909 ft | 491 kts | 219° |
| 2026-04-24 00:09 | 17.09443 | 54.67057 | 35911 ft | 491 kts | 218° |
| 2026-04-24 00:10 | 17.03684 | 54.63209 | 35893 ft | 491 kts | 218° |
| 2026-04-24 00:10 | 16.97935 | 54.59371 | 35903 ft | 490 kts | 218° |
| 2026-04-24 00:11 | 16.92194 | 54.55536 | 35900 ft | 490 kts | 218° |
| 2026-04-24 00:11 | 16.86447 | 54.51704 | 35883 ft | 490 kts | 218° |
| 2026-04-24 00:12 | 16.80733 | 54.47897 | 35886 ft | 490 kts | 218° |
| 2026-04-24 00:12 | 16.74989 | 54.44068 | 35871 ft | 490 kts | 218° |
| 2026-04-24 00:13 | 16.69232 | 54.40231 | 35872 ft | 491 kts | 218° |
| 2026-04-24 00:13 | 16.63475 | 54.36397 | 35874 ft | 491 kts | 218° |
| 2026-04-24 00:14 | 16.57713 | 54.32562 | 35870 ft | 492 kts | 218° |
| 2026-04-24 00:14 | 16.51945 | 54.28726 | 35878 ft | 492 kts | 218° |
| 2026-04-24 00:15 | 16.46172 | 54.24889 | 35880 ft | 493 kts | 218° |
| 2026-04-24 00:15 | 16.40386 | 54.21046 | 35881 ft | 493 kts | 218° |
| 2026-04-24 00:16 | 16.34601 | 54.17207 | 35878 ft | 493 kts | 218° |
| 2026-04-24 00:16 | 16.28813 | 54.13369 | 35879 ft | 493 kts | 218° |
| 2026-04-24 00:17 | 16.23035 | 54.09540 | 35875 ft | 493 kts | 218° |
| 2026-04-24 00:17 | 16.18225 | 54.06354 | 35882 ft | 492 kts | 218° |